createdAt,value
2019-04-04T00:00:06.932Z,7.95
2019-04-04T00:02:40.621Z,8.06
2019-04-04T00:05:14.411Z,8.09
2019-04-04T00:07:47.856Z,8.13
2019-04-04T00:10:21.389Z,8.20
2019-04-04T00:12:55.731Z,8.30
2019-04-04T00:15:30.624Z,8.43
2019-04-04T00:18:04.433Z,8.49
2019-04-04T00:20:37.862Z,8.46
2019-04-04T00:23:11.264Z,8.47
2019-04-04T00:25:44.923Z,8.53
2019-04-04T00:28:19.056Z,8.50
2019-04-04T00:30:52.647Z,8.63
2019-04-04T00:33:26.413Z,8.65
2019-04-04T00:36:00.697Z,8.70
2019-04-04T00:38:36.043Z,8.76
2019-04-04T00:41:13.013Z,8.87
2019-04-04T00:43:47.217Z,9.03
2019-04-04T00:46:22.176Z,9.22
2019-04-04T00:48:55.717Z,9.30
2019-04-04T00:51:29.345Z,9.28
2019-04-04T00:54:03.859Z,9.53
2019-04-04T00:56:37.614Z,9.52
2019-04-04T00:59:11.058Z,9.66
2019-04-04T01:01:46.363Z,9.79
2019-04-04T01:04:19.966Z,9.84
2019-04-04T01:06:53.539Z,9.84
2019-04-04T01:09:27.171Z,9.83
2019-04-04T01:12:02.382Z,9.89
2019-04-04T01:14:36.440Z,9.94
2019-04-04T01:17:11.117Z,9.98
2019-04-04T01:19:44.722Z,10.06
2019-04-04T01:22:18.508Z,10.22
2019-04-04T01:24:52.376Z,10.34
2019-04-04T01:27:26.067Z,10.33
2019-04-04T01:30:01.299Z,10.37
2019-04-04T01:32:34.883Z,10.24
2019-04-04T01:35:10.316Z,10.35
2019-04-04T01:37:44.827Z,10.40
2019-04-04T01:40:19.560Z,10.51
2019-04-04T01:42:53.141Z,10.60
2019-04-04T01:45:26.738Z,10.83
2019-04-04T01:48:00.523Z,10.82
2019-04-04T01:50:34.147Z,10.81
2019-04-04T01:53:07.909Z,10.84
2019-04-04T01:55:42.607Z,10.82
2019-04-04T01:58:16.872Z,10.84
2019-04-04T02:00:50.428Z,10.92
2019-04-04T02:03:49.103Z,10.96
2019-04-04T02:06:24.434Z,10.87
2019-04-04T02:08:58.243Z,11.00
2019-04-04T02:11:51.157Z,11.11
2019-04-04T02:14:25.013Z,11.21
2019-04-04T02:16:59.620Z,11.34
2019-04-04T02:19:33.134Z,11.33
2019-04-04T02:22:07.032Z,11.45
2019-04-04T02:24:41.346Z,11.64
2019-04-04T02:27:15.133Z,11.76
2019-04-04T02:29:48.989Z,11.86
2019-04-04T02:32:26.139Z,11.96
2019-04-04T02:34:59.027Z,11.98
2019-04-04T02:37:32.628Z,12.17
2019-04-04T02:40:09.151Z,12.29
2019-04-04T02:42:43.315Z,12.43
2019-04-04T02:45:16.754Z,12.49
2019-04-04T02:47:51.551Z,12.60
2019-04-04T02:50:26.990Z,12.67
2019-04-04T02:53:00.684Z,12.71
2019-04-04T02:55:34.578Z,12.89
2019-04-04T02:58:08.277Z,13.01
2019-04-04T03:00:41.818Z,13.18
2019-04-04T03:03:16.199Z,13.46
2019-04-04T03:05:52.108Z,13.68
2019-04-04T03:08:26.149Z,13.85
2019-04-04T03:11:00.268Z,14.02
2019-04-04T03:13:33.987Z,14.10
2019-04-04T03:16:07.709Z,14.20
2019-04-04T03:18:41.735Z,14.28
2019-04-04T03:21:16.932Z,14.35
2019-04-04T03:23:50.513Z,14.42
2019-04-04T03:26:24.244Z,14.49
2019-04-04T03:28:59.312Z,14.57
2019-04-04T03:31:37.415Z,14.58
2019-04-04T03:34:11.074Z,14.63
2019-04-04T03:36:43.819Z,14.70
2019-04-04T03:39:19.573Z,14.72
2019-04-04T03:41:52.485Z,14.84
2019-04-04T03:44:26.024Z,14.86
2019-04-04T03:46:59.711Z,14.86
2019-04-04T03:49:33.344Z,14.96
2019-04-04T03:52:11.227Z,15.01
2019-04-04T03:54:43.101Z,14.95
2019-04-04T03:57:16.981Z,15.05
2019-04-04T03:59:50.773Z,15.10
2019-04-04T04:02:24.395Z,15.16
2019-04-04T04:05:00.933Z,15.17
2019-04-04T04:07:33.058Z,15.19
2019-04-04T04:10:07.391Z,15.20
2019-04-04T04:12:43.170Z,15.27
2019-04-04T04:15:16.963Z,15.33
2019-04-04T04:17:50.440Z,15.34
2019-04-04T04:20:24.202Z,15.55
2019-04-04T04:22:57.903Z,15.43
2019-04-04T04:25:36.428Z,15.63
2019-04-04T04:28:08.299Z,15.64
2019-04-04T04:30:41.862Z,15.79
2019-04-04T04:33:15.514Z,15.68
2019-04-04T04:35:50.029Z,15.52
2019-04-04T04:38:26.853Z,15.59
2019-04-04T04:40:58.559Z,15.65
2019-04-04T04:43:33.563Z,15.57
2019-04-04T04:46:07.018Z,15.63
2019-04-04T04:48:40.940Z,15.67
2019-04-04T04:51:14.305Z,15.70
2019-04-04T04:53:50.638Z,15.73
2019-04-04T04:56:24.054Z,15.89
2019-04-04T04:58:57.738Z,16.29
2019-04-04T05:01:31.411Z,16.71
2019-04-04T05:04:05.149Z,16.97
2019-04-04T05:06:38.810Z,16.96
2019-04-04T05:09:13.971Z,16.77
2019-04-04T05:11:50.325Z,16.68
2019-04-04T05:14:23.779Z,16.37
2019-04-04T05:16:59.037Z,16.54
2019-04-04T05:19:32.851Z,16.78
2019-04-04T05:22:07.124Z,16.82
2019-04-04T05:24:42.400Z,16.67
2019-04-04T05:27:16.138Z,16.68
2019-04-04T05:29:49.886Z,16.59
2019-04-04T05:32:23.426Z,16.43
2019-04-04T05:34:56.989Z,16.18
2019-04-04T05:37:30.585Z,16.07
2019-04-04T05:40:04.256Z,15.88
2019-04-04T05:42:37.938Z,15.79
2019-04-04T05:45:14.445Z,15.77
2019-04-04T05:47:48.650Z,15.84
2019-04-04T05:50:23.520Z,15.63
2019-04-04T05:52:56.974Z,15.70
2019-04-04T05:55:30.762Z,15.55
2019-04-04T05:58:04.655Z,15.48
2019-04-04T06:00:38.403Z,15.24
2019-04-04T06:03:13.022Z,14.99
2019-04-04T06:05:48.994Z,15.03
2019-04-04T06:08:22.609Z,14.83
2019-04-04T06:10:55.968Z,14.57
2019-04-04T06:13:29.522Z,14.55
2019-04-04T06:16:04.917Z,14.45
2019-04-04T06:18:38.632Z,14.24
2019-04-04T06:21:12.869Z,14.12
2019-04-04T06:23:49.614Z,14.09
2019-04-04T06:26:23.429Z,13.98
2019-04-04T06:28:57.121Z,13.67
2019-04-04T06:31:31.024Z,13.82
2019-04-04T06:34:05.952Z,13.73
2019-04-04T06:36:50.942Z,13.57
2019-04-04T06:39:15.085Z,13.60
2019-04-04T06:42:06.108Z,13.59
2019-04-04T06:44:38.831Z,13.56
2019-04-04T06:47:13.057Z,13.63
2019-04-04T06:49:47.229Z,13.54
2019-04-04T06:52:23.360Z,13.62
2019-04-04T06:54:57.343Z,13.47
2019-04-04T06:57:30.588Z,13.54
2019-04-04T07:00:04.427Z,13.77
2019-04-04T07:02:38.142Z,13.79
2019-04-04T07:05:13.668Z,13.99
2019-04-04T07:07:47.663Z,14.26
2019-04-04T07:10:23.728Z,14.14
2019-04-04T07:13:09.657Z,13.84
2019-04-04T07:15:32.198Z,14.03
2019-04-04T07:18:05.835Z,14.09
2019-04-04T07:20:40.612Z,14.10
2019-04-04T07:23:14.455Z,13.98
2019-04-04T07:25:47.983Z,13.92
2019-04-04T07:28:22.066Z,13.57
2019-04-04T07:30:55.574Z,13.77
2019-04-04T07:33:30.867Z,13.88
2019-04-04T07:36:04.462Z,13.92
2019-04-04T07:38:38.240Z,13.70
2019-04-04T07:41:14.616Z,13.69
2019-04-04T07:43:49.288Z,13.54
2019-04-04T07:46:23.152Z,13.66
2019-04-04T07:49:00.961Z,13.76
2019-04-04T07:51:34.611Z,13.56
2019-04-04T07:54:08.463Z,13.65
2019-04-04T07:56:43.505Z,13.57
2019-04-04T07:59:16.879Z,13.47
2019-04-04T08:01:51.608Z,13.50
2019-04-04T08:04:25.525Z,13.29
2019-04-04T08:06:59.152Z,13.37
2019-04-04T08:09:34.256Z,13.31
2019-04-04T08:12:07.912Z,13.28
2019-04-04T08:14:43.747Z,13.27
2019-04-04T08:17:19.207Z,13.19
2019-04-04T08:19:59.500Z,13.12
2019-04-04T08:22:27.775Z,12.91
2019-04-04T08:25:01.673Z,12.80
2019-04-04T08:27:35.412Z,12.56
2019-04-04T08:30:10.192Z,12.48
2019-04-04T08:32:43.576Z,12.56
2019-04-04T08:35:17.451Z,12.74
2019-04-04T08:37:52.413Z,12.68
2019-04-04T08:40:26.243Z,12.57
2019-04-04T08:43:01.406Z,12.59
2019-04-04T08:45:35.216Z,12.75
2019-04-04T08:48:09.088Z,12.80
2019-04-04T08:50:43.426Z,12.68
2019-04-04T08:53:18.539Z,12.62
2019-04-04T08:55:52.403Z,12.64
2019-04-04T08:58:26.280Z,12.61
2019-04-04T09:01:01.275Z,12.50
2019-04-04T09:03:36.739Z,12.44
2019-04-04T09:06:10.796Z,12.33
2019-04-04T09:08:47.576Z,12.31
2019-04-04T09:11:20.831Z,12.23
2019-04-04T09:13:55.089Z,12.23
2019-04-04T09:16:28.814Z,12.20
2019-04-04T09:19:02.349Z,12.15
2019-04-04T09:21:36.166Z,12.17
2019-04-04T09:24:09.983Z,12.10
2019-04-04T09:26:43.728Z,12.00
2019-04-04T09:29:17.532Z,12.00
2019-04-04T09:31:51.432Z,11.90
2019-04-04T09:34:25.254Z,11.93
2019-04-04T09:36:59.053Z,11.74
2019-04-04T09:39:33.045Z,11.86
2019-04-04T09:42:06.633Z,11.85
2019-04-04T09:44:40.397Z,11.65
2019-04-04T09:47:18.428Z,11.68
2019-04-04T09:49:52.641Z,11.62
2019-04-04T09:52:31.076Z,11.63
2019-04-04T09:55:05.296Z,11.61
2019-04-04T09:57:39.808Z,11.59
2019-04-04T10:00:18.929Z,11.49
2019-04-04T10:02:53.380Z,11.43
2019-04-04T10:05:27.731Z,11.44
2019-04-04T10:08:02.266Z,11.46
2019-04-04T10:10:37.824Z,11.43
2019-04-04T10:13:12.494Z,11.32
2019-04-04T10:15:47.109Z,11.32
2019-04-04T10:18:21.593Z,11.20
2019-04-04T10:21:11.072Z,11.18
2019-04-04T10:23:38.668Z,11.12
2019-04-04T10:26:15.628Z,11.10
2019-04-04T10:28:51.696Z,11.04
2019-04-04T10:31:27.316Z,10.90
2019-04-04T10:34:03.239Z,10.95
2019-04-04T10:36:38.453Z,10.87
2019-04-04T10:39:27.931Z,10.76
2019-04-04T10:41:52.651Z,10.74
2019-04-04T10:44:27.725Z,10.79
2019-04-04T10:47:02.808Z,10.61
2019-04-04T10:49:37.010Z,10.56
2019-04-04T10:52:13.182Z,10.60
2019-04-04T10:54:47.049Z,10.54
2019-04-04T10:57:22.925Z,10.44
2019-04-04T10:59:57.098Z,10.46
2019-04-04T11:02:31.295Z,10.37
2019-04-04T11:05:05.358Z,10.32
2019-04-04T11:07:41.752Z,10.36
2019-04-04T11:10:17.070Z,10.27
2019-04-04T11:12:52.395Z,10.18
2019-04-04T11:15:33.074Z,10.25
2019-04-04T11:18:12.097Z,10.23
2019-04-04T11:20:46.542Z,10.28
2019-04-04T11:23:22.928Z,10.21
2019-04-04T11:25:58.158Z,10.09
2019-04-04T11:28:35.124Z,10.01
2019-04-04T11:31:15.494Z,10.14
2019-04-04T11:33:51.263Z,10.08
2019-04-04T11:36:28.655Z,9.95
2019-04-04T11:39:04.442Z,9.78
2019-04-04T11:41:38.825Z,9.75
2019-04-04T11:44:14.675Z,9.80
2019-04-04T11:46:51.753Z,9.78
2019-04-04T11:49:30.544Z,9.70
2019-04-04T11:52:11.541Z,9.59
2019-04-04T11:57:40.179Z,9.53
2019-04-04T12:00:21.050Z,9.54
2019-04-04T12:02:57.046Z,9.51
2019-04-04T12:05:34.874Z,9.42
2019-04-04T12:08:09.868Z,9.44
2019-04-04T12:10:46.054Z,9.44
2019-04-04T12:13:22.866Z,9.35
2019-04-04T12:15:58.284Z,9.36
2019-04-04T12:18:33.708Z,9.20
2019-04-04T12:21:07.695Z,9.16
2019-04-04T12:23:43.633Z,9.24
2019-04-04T12:26:19.041Z,9.33
2019-04-04T12:28:55.033Z,9.22
2019-04-04T12:31:29.255Z,9.07
2019-04-04T12:34:04.142Z,9.00
2019-04-04T12:36:39.046Z,9.00
2019-04-04T12:39:16.122Z,9.07
2019-04-04T12:41:50.097Z,8.98
2019-04-04T12:45:12.625Z,9.00
2019-04-04T12:47:01.518Z,8.98
2019-04-04T12:49:37.969Z,9.02
2019-04-04T12:52:14.707Z,8.89
2019-04-04T12:54:50.574Z,8.66
2019-04-04T12:57:25.063Z,8.61
2019-04-04T13:00:00.762Z,8.60
2019-04-04T13:02:34.749Z,8.56
2019-04-04T13:05:11.172Z,8.50
2019-04-04T13:07:45.556Z,8.56
2019-04-04T13:10:32.110Z,8.46
2019-04-04T13:12:56.191Z,8.41
2019-04-04T13:15:30.754Z,8.35
2019-04-04T13:18:06.352Z,8.33
2019-04-04T13:20:41.922Z,8.39
2019-04-04T13:23:17.622Z,8.19
2019-04-04T13:25:51.196Z,8.19
2019-04-04T13:28:29.002Z,8.16
2019-04-04T13:31:05.295Z,8.08
2019-04-04T13:33:42.858Z,8.04
2019-04-04T13:36:17.772Z,7.92
2019-04-04T13:38:55.171Z,7.87
2019-04-04T13:41:30.105Z,7.94
2019-04-04T13:44:05.146Z,7.91
2019-04-04T13:46:43.626Z,7.89
2019-04-04T13:49:18.436Z,7.67
2019-04-04T13:51:55.267Z,7.69
2019-04-04T13:54:31.991Z,7.77
2019-04-04T13:57:16.670Z,7.60
2019-04-04T13:59:53.853Z,7.63
2019-04-04T14:02:26.979Z,7.47
2019-04-04T14:05:09.769Z,7.53
2019-04-04T14:07:37.236Z,7.38
2019-04-04T14:10:11.658Z,7.39
2019-04-04T14:12:45.236Z,7.37
2019-04-04T14:15:20.530Z,7.44
2019-04-04T14:17:54.175Z,7.32
2019-04-04T14:20:27.873Z,7.22
2019-04-04T14:23:02.177Z,7.30
2019-04-04T14:25:35.969Z,7.24
2019-04-04T14:28:11.427Z,7.11
2019-04-04T14:30:46.894Z,7.22
2019-04-04T14:33:27.064Z,7.10
2019-04-04T14:36:02.623Z,7.13
2019-04-04T14:38:36.707Z,6.99
2019-04-04T14:41:12.080Z,6.92
2019-04-04T14:43:51.653Z,6.90
2019-04-04T14:46:24.272Z,6.89
2019-04-04T14:48:58.298Z,6.82
2019-04-04T14:51:32.885Z,6.85
2019-04-04T14:54:06.895Z,6.80
2019-04-04T14:56:40.821Z,6.76
2019-04-04T14:59:14.206Z,6.66
2019-04-04T15:01:47.557Z,6.59
2019-04-04T15:04:21.220Z,6.59
2019-04-04T15:06:56.465Z,6.53
2019-04-04T15:09:30.275Z,6.47
2019-04-04T15:12:24.674Z,6.54
2019-04-04T15:14:58.797Z,6.49
2019-04-04T15:17:32.946Z,6.33
2019-04-04T15:20:07.714Z,6.35
2019-04-04T15:22:42.583Z,6.30
2019-04-04T15:25:16.627Z,6.29
2019-04-04T15:27:50.581Z,6.27
2019-04-04T15:30:24.237Z,6.29
2019-04-04T15:32:58.148Z,6.15
2019-04-04T15:35:31.818Z,6.11
2019-04-04T15:38:05.685Z,6.21
2019-04-04T15:40:39.399Z,6.21
2019-04-04T15:43:13.077Z,6.13
2019-04-04T15:45:46.842Z,6.07
2019-04-04T15:48:20.468Z,6.06
2019-04-04T15:50:54.236Z,6.11
2019-04-04T15:53:28.169Z,5.99
2019-04-04T15:56:02.037Z,5.98
2019-04-04T15:58:35.953Z,5.99
2019-04-04T16:01:11.949Z,5.88
2019-04-04T16:03:45.723Z,5.82
2019-04-04T16:06:19.683Z,5.77
2019-04-04T16:08:54.734Z,5.74
2019-04-04T16:11:48.482Z,5.73
2019-04-04T16:14:11.409Z,5.78
2019-04-04T16:16:45.217Z,5.75
2019-04-04T16:19:20.513Z,5.74
2019-04-04T16:21:54.235Z,5.76
2019-04-04T16:24:28.108Z,5.85
2019-04-04T16:27:07.195Z,5.73
2019-04-04T16:29:40.114Z,5.76
2019-04-04T16:32:13.782Z,5.75
2019-04-04T16:34:47.944Z,5.85
2019-04-04T16:37:22.465Z,5.51
2019-04-04T16:40:07.825Z,5.65
2019-04-04T16:42:31.143Z,5.57
2019-04-04T16:45:07.518Z,5.50
2019-04-04T16:47:42.184Z,5.48
2019-04-04T16:50:16.906Z,5.41
2019-04-04T16:52:50.641Z,5.41
2019-04-04T16:55:24.537Z,5.40
2019-04-04T16:57:58.924Z,5.37
2019-04-04T17:00:33.383Z,5.28
2019-04-04T17:03:07.002Z,5.29
2019-04-04T17:05:41.765Z,5.33
2019-04-04T17:08:16.119Z,5.28
2019-04-04T17:10:50.389Z,5.20
2019-04-04T17:13:25.547Z,5.34
2019-04-04T17:15:59.383Z,5.17
2019-04-04T17:18:33.150Z,5.12
2019-04-04T17:21:06.893Z,5.17
2019-04-04T17:23:40.442Z,5.02
2019-04-04T17:26:14.509Z,4.97
2019-04-04T17:28:48.296Z,4.97
2019-04-04T17:31:22.095Z,5.04
2019-04-04T17:33:56.172Z,4.94
2019-04-04T17:36:30.665Z,4.88
2019-04-04T17:39:05.121Z,4.86
2019-04-04T17:41:40.600Z,4.75
2019-04-04T17:44:14.957Z,4.85
2019-04-04T17:46:48.658Z,4.89
2019-04-04T17:49:22.733Z,4.77
2019-04-04T17:51:59.621Z,4.73
2019-04-04T17:54:33.569Z,4.65
2019-04-04T17:57:07.546Z,4.62
2019-04-04T17:59:42.990Z,4.70
2019-04-04T18:02:16.720Z,4.72
2019-04-04T18:04:51.721Z,4.64
2019-04-04T18:07:25.658Z,4.56
2019-04-04T18:09:59.686Z,4.61
2019-04-04T18:12:40.230Z,4.65
2019-04-04T18:15:10.594Z,4.56
2019-04-04T18:17:44.432Z,4.61
2019-04-04T18:20:18.887Z,4.71
2019-04-04T18:22:52.643Z,4.65
2019-04-04T18:25:26.374Z,4.55
2019-04-04T18:28:00.516Z,4.48
2019-04-04T18:30:34.443Z,4.41
2019-04-04T18:33:08.385Z,4.46
2019-04-04T18:35:42.225Z,4.37
2019-04-04T18:38:16.354Z,4.32
2019-04-04T18:40:50.209Z,4.27
2019-04-04T18:43:24.000Z,4.33
2019-04-04T18:45:57.565Z,4.39
2019-04-04T18:48:33.320Z,4.23
2019-04-04T18:51:07.201Z,4.27
2019-04-04T18:53:40.845Z,4.20
2019-04-04T18:56:14.702Z,4.26
2019-04-04T18:58:48.972Z,4.35
2019-04-04T19:01:23.388Z,4.29
2019-04-04T19:03:57.475Z,4.17
2019-04-04T19:06:31.929Z,4.11
2019-04-04T19:09:14.784Z,4.21
2019-04-04T19:11:41.568Z,4.16
2019-04-04T19:14:15.554Z,4.04
2019-04-04T19:16:48.927Z,4.01
2019-04-04T19:19:22.784Z,4.01
2019-04-04T19:21:56.654Z,3.97
2019-04-04T19:24:30.564Z,3.95
2019-04-04T19:27:04.361Z,3.93
2019-04-04T19:29:37.977Z,3.89
2019-04-04T19:32:11.879Z,3.91
2019-04-04T19:34:45.499Z,3.93
2019-04-04T19:37:19.758Z,3.92
2019-04-04T19:39:54.479Z,3.91
2019-04-04T19:42:28.338Z,3.84
2019-04-04T19:45:02.085Z,3.87
2019-04-04T19:47:37.007Z,3.74
2019-04-04T19:50:17.475Z,3.78
2019-04-04T19:52:51.572Z,3.63
2019-04-04T19:55:25.446Z,3.71
2019-04-04T19:57:59.728Z,3.55
2019-04-04T20:00:33.471Z,3.76
2019-04-04T20:03:07.455Z,3.72
2019-04-04T20:05:44.260Z,3.53
2019-04-04T20:08:16.655Z,3.61
2019-04-04T20:10:50.415Z,3.65
2019-04-04T20:13:30.733Z,3.69
2019-04-04T20:15:58.669Z,3.57
2019-04-04T20:18:32.339Z,3.56
2019-04-04T20:21:07.639Z,3.50
2019-04-04T20:23:41.557Z,3.52
2019-04-04T20:26:15.490Z,3.46
2019-04-04T20:28:49.500Z,3.53
2019-04-04T20:31:23.466Z,3.57
2019-04-04T20:34:01.765Z,3.59
2019-04-04T20:36:32.215Z,3.52
2019-04-04T20:39:07.081Z,3.49
2019-04-04T20:41:42.585Z,3.45
2019-04-04T20:44:16.958Z,3.46
2019-04-04T20:46:51.585Z,3.50
2019-04-04T20:49:25.651Z,3.41
2019-04-04T20:51:59.683Z,3.52
2019-04-04T20:54:35.130Z,3.52
2019-04-04T20:57:10.453Z,3.47
2019-04-04T20:59:43.784Z,3.47
2019-04-04T21:02:17.619Z,3.54
2019-04-04T21:04:54.182Z,3.42
2019-04-04T21:07:26.761Z,3.40
2019-04-04T21:10:00.416Z,3.46
2019-04-04T21:12:34.307Z,3.40
2019-04-04T21:15:08.840Z,3.54
2019-04-04T21:17:42.938Z,3.49
2019-04-04T21:20:16.743Z,3.34
2019-04-04T21:22:50.458Z,3.48
2019-04-04T21:25:24.726Z,3.41
2019-04-04T21:27:58.742Z,3.35
2019-04-04T21:30:32.952Z,3.31
2019-04-04T21:33:07.911Z,3.15
2019-04-04T21:35:41.882Z,3.29
2019-04-04T21:38:15.514Z,3.17
2019-04-04T21:40:49.033Z,3.10
2019-04-04T21:43:22.999Z,3.17
2019-04-04T21:45:57.420Z,3.26
2019-04-04T21:48:38.414Z,3.27
2019-04-04T21:51:12.287Z,3.27
2019-04-04T21:53:46.009Z,3.34
2019-04-04T21:56:20.448Z,3.29
2019-04-04T21:58:54.488Z,3.42
2019-04-04T22:01:30.187Z,3.27
2019-04-04T22:04:04.176Z,3.16
2019-04-04T22:06:38.098Z,3.36
2019-04-04T22:09:12.701Z,3.02
2019-04-04T22:11:47.779Z,2.88
2019-04-04T22:14:22.409Z,2.94
2019-04-04T22:16:56.305Z,2.86
2019-04-04T22:19:29.899Z,2.97
2019-04-04T22:22:03.688Z,2.88
2019-04-04T22:24:37.646Z,2.83
2019-04-04T22:27:11.539Z,2.85
2019-04-04T22:29:46.975Z,2.97
2019-04-04T22:32:21.218Z,2.92
2019-04-04T22:34:55.257Z,2.92
2019-04-04T22:37:29.222Z,2.89
2019-04-04T22:40:03.104Z,2.76
2019-04-04T22:42:37.162Z,2.74
2019-04-04T22:45:13.299Z,2.84
2019-04-04T22:47:46.981Z,2.64
2019-04-04T22:50:20.721Z,2.80
2019-04-04T22:52:54.537Z,2.74
2019-04-04T22:55:29.823Z,2.73
2019-04-04T22:58:05.349Z,2.90
2019-04-04T23:00:39.892Z,2.86
2019-04-04T23:03:16.109Z,3.07
2019-04-04T23:05:52.992Z,3.30
2019-04-04T23:08:30.449Z,3.24
2019-04-04T23:11:14.436Z,3.21
2019-04-04T23:13:47.114Z,3.32
2019-04-04T23:16:23.985Z,3.28
2019-04-04T23:19:02.578Z,3.30
2019-04-04T23:21:39.959Z,3.38
2019-04-04T23:24:16.693Z,3.42
2019-04-04T23:26:52.392Z,3.27
2019-04-04T23:29:27.327Z,3.23
2019-04-04T23:32:02.809Z,3.30
2019-04-04T23:34:37.912Z,3.31
2019-04-04T23:37:13.497Z,3.42
2019-04-04T23:39:47.850Z,3.28
2019-04-04T23:42:23.268Z,3.37
2019-04-04T23:45:01.182Z,3.46
2019-04-04T23:47:42.033Z,3.36
2019-04-04T23:50:08.726Z,3.30
2019-04-04T23:52:44.162Z,3.41
2019-04-04T23:55:18.104Z,3.39
2019-04-04T23:57:52.536Z,3.54
